Ames, Iowa
Current Conditions -  °F | °C
As of 3:53 AM on Friday 31 Oct 2014 (Local Time) from KAMW Reporting Station
Clear Clear  
Wind Chill: 19°   Ceiling: Unl
Heat Index: 32°   Visibility: 10mi
Dew Point: 17°   Wind: 24mph
Humidity: 54%   Direction: 350°N
Pressure: 30.38"   Gusts: 35mph
Location:  42.03°N, 93.62°W
Report Text: KAMW 310853Z AUTO 35021G30KT 10SM CLR 00/M08 A3038 RMK AO2 PK WND 34032/0800 SLP290 T00001083 53028
Loading
Personal Weather Stations






























Interactive Weather Map
Tropical Storm Tracking
New forecast layout! Learn more

10-Day Weather Forecast

Advertisements
Track Severe Weather on mobile